Punta Salinas — EABF — position and weather

sailwx.info

Track history (hours):
 
Tides and Currents Weather Stations Pressure Air Temp Water Temp Dewpoint Dewpoint Depression Visibility Wind Speed Wind Dir Waves Ship Positions

Punta Salinas

Last reported at 2015-Jul-29 13:12 UTC. Time now 2015-Aug-28 14:51 UTC.
Position N 28°09' W 015°25'.
Warning: this ship's position is 30 days out of date.

; draft 5 m.

Type: SAR. MMSI: 224522000.

Date/timePositionNaut miles runAvg speedWind from/ knotsBaromVisibWave heightAir tempDewpointWater temp
2015-Jul-29 13:12N 28°09' W 015°25'0 0.0
2015-Jul-29 12:30N 28°09' W 015°25'0 0.0
2015-Jul-29 11:30N 28°09' W 015°25'0 0.0
2015-Jul-29 10:30N 28°09' W 015°25'0 0.0
2015-Jul-29 08:30N 28°09' W 015°25'0 0.0
2015-Jul-29 07:33N 28°09' W 015°25'0 0.0
2015-Jul-29 06:33N 28°09' W 015°25'0 0.0
2015-Jul-29 05:33N 28°09' W 015°25'0 0.0
2015-Jul-29 04:33N 28°09' W 015°25'0 0.0
2015-Jul-29 03:33N 28°09' W 015°25'0 0.0
2015-Jul-29 02:33N 28°09' W 015°25'0 0.0
2015-Jul-29 01:24N 28°09' W 015°25'0 0.0
2015-Jul-29 00:27N 28°09' W 015°25'0 0.0
2015-Jul-28 23:30N 28°09' W 015°25'0 0.0
2015-Jul-28 22:30N 28°09' W 015°25'0 0.0
2015-Jul-28 21:30N 28°09' W 015°25'0 0.0
2015-Jul-28 20:18N 28°09' W 015°25'0 0.0
2015-Jul-28 19:30N 28°09' W 015°25'0 0.0
2015-Jul-28 18:33N 28°09' W 015°25'0 0.0
2015-Jul-28 17:33N 28°09' W 015°25'0 0.0
2015-Jul-28 16:33N 28°09' W 015°25'0 0.0
2015-Jul-28 15:33N 28°09' W 015°25'0 0.0
2015-Jul-28 14:33N 28°09' W 015°25'0 0.0
2015-Jul-28 13:24N 28°09' W 015°25'0 0.0
2015-Jul-28 12:33N 28°09' W 015°25'0 0.0
2015-Jul-28 11:24N 28°09' W 015°25'0 0.0
2015-Jul-28 10:27N 28°09' W 015°25'0 0.0
2015-Jul-28 09:30N 28°09' W 015°25'0 0.0
2015-Jul-28 08:30N 28°09' W 015°25'0 0.0
2015-Jul-28 07:27N 28°09' W 015°25'0 0.0
2015-Jul-28 06:30N 28°09' W 015°25'0 0.0
2015-Jul-28 05:30N 28°09' W 015°25'0 0.0
2015-Jul-28 04:30N 28°09' W 015°25'0 0.0
2015-Jul-28 03:33N 28°09' W 015°25'0 0.0
2015-Jul-28 02:33N 28°09' W 015°25'0 0.0
2015-Jul-28 01:33N 28°09' W 015°25'0 0.0
2015-Jul-27 23:33N 28°09' W 015°25'0 0.0
2015-Jul-27 22:33N 28°09' W 015°25'0 0.0
2015-Jul-27 21:24N 28°09' W 015°25'0 0.0
2015-Jul-27 20:24N 28°09' W 015°25'0 0.0
2015-Jul-27 19:30N 28°09' W 015°25'0 0.0
2015-Jul-27 17:12N 28°09' W 015°25'0 0.0
2015-Jul-27 16:30N 28°09' W 015°25'0 0.0
2015-Jul-27 15:27N 28°09' W 015°25'0 0.0
2015-Jul-27 14:30N 28°09' W 015°25'0 0.0
2015-Jul-27 13:33N 28°09' W 015°25'0 0.0
2015-Jul-27 12:33N 28°09' W 015°25'0 0.0
2015-Jul-27 11:24N 28°09' W 015°25'  
2015-Jul-24 16:33N 28°09' W 015°25'0 0.0
2015-Jul-24 15:33N 28°09' W 015°25'0 0.0
2015-Jul-24 14:33N 28°09' W 015°25'0 0.0
2015-Jul-24 13:33N 28°09' W 015°25'0 0.0
2015-Jul-24 12:33N 28°09' W 015°25'0 0.0
2015-Jul-24 11:33N 28°09' W 015°25'1 1.1
2015-Jul-24 10:33N 28°08' W 015°25'1 1.1
2015-Jul-24 09:25N 28°09' W 015°24'0 0.0
2015-Jul-24 08:25N 28°09' W 015°24'0 0.0
2015-Jul-24 07:25N 28°09' W 015°24'0 0.0
2015-Jul-24 06:25N 28°09' W 015°24'0 0.0
2015-Jul-24 05:31N 28°09' W 015°24'0 0.0
2015-Jul-24 04:31N 28°09' W 015°24'0 0.0
2015-Jul-24 03:31N 28°09' W 015°24'0 0.0
2015-Jul-24 02:31N 28°09' W 015°24'0 0.0
2015-Jul-24 01:31N 28°09' W 015°24'0 0.0
2015-Jul-24 00:31N 28°09' W 015°24'0 0.0
2015-Jul-23 23:31N 28°09' W 015°24'0 0.0
2015-Jul-23 22:31N 28°09' W 015°24'0 0.0
2015-Jul-23 21:31N 28°09' W 015°24'4 3.8
2015-Jul-23 20:33N 28°05' W 015°23'10 0.3
2015-Jul-22 08:33N 27°56' W 015°20'10 9.8
2015-Jul-22 07:33N 28°05' W 015°23'4 3.7
2015-Jul-22 06:31N 28°09' W 015°25'0 0.0
2015-Jul-22 05:28N 28°09' W 015°25'0 0.0
2015-Jul-22 04:28N 28°09' W 015°25'0 0.0
2015-Jul-22 03:28N 28°09' W 015°25'0 0.0
2015-Jul-22 02:28N 28°09' W 015°25'0 0.0
2015-Jul-22 01:28N 28°09' W 015°25'0 0.0
2015-Jul-22 00:28N 28°09' W 015°25'0 0.0
2015-Jul-21 23:28N 28°09' W 015°25'0 0.0
2015-Jul-21 22:31N 28°09' W 015°25'0 0.0
2015-Jul-21 21:31N 28°09' W 015°25'0 0.0
2015-Jul-21 20:31N 28°09' W 015°25'0 0.0
2015-Jul-21 19:31N 28°09' W 015°25'0 0.0
2015-Jul-21 18:19N 28°09' W 015°25'0 0.0
2015-Jul-21 17:31N 28°09' W 015°25'0 0.0
2015-Jul-21 16:19N 28°09' W 015°25'0 0.0
2015-Jul-21 15:22N 28°09' W 015°25'0 0.0
2015-Jul-21 14:28N 28°09' W 015°25'0 0.0
2015-Jul-21 13:28N 28°09' W 015°25'0 0.0
2015-Jul-21 12:28N 28°09' W 015°25'0 0.0
2015-Jul-21 11:28N 28°09' W 015°25'0 0.0
2015-Jul-21 10:28N 28°09' W 015°25'0 0.0
2015-Jul-21 09:28N 28°09' W 015°25'0 0.0
2015-Jul-21 08:28N 28°09' W 015°25'0 0.0
2015-Jul-21 07:31N 28°09' W 015°25'0 0.0
2015-Jul-21 06:31N 28°09' W 015°25'0 0.0
2015-Jul-21 05:31N 28°09' W 015°25'0 0.0
2015-Jul-21 04:31N 28°09' W 015°25'0 0.0
2015-Jul-21 03:31N 28°09' W 015°25'0 0.0
2015-Jul-21 02:33N 28°09' W 015°25'7 6.5
2015-Jul-21 01:33N 28°04' W 015°20'10 9.9
2015-Jul-21 00:33N 27°55' W 015°14'7 0.7
2015-Jul-20 15:20N 27°51' W 015°20'810.6
2015-Jul-20 14:33N 27°60' W 015°20'1010.0
2015-Jul-20 13:34N 28°08' W 015°25'0 0.0
2015-Jul-20 12:31N 28°08' W 015°25'0 0.0
2015-Jul-20 11:31N 28°08' W 015°25'0 0.0
2015-Jul-20 10:31N 28°08' W 015°25'0 0.0
2015-Jul-20 09:28N 28°08' W 015°25'  
Track history (hours):
 
Tides and Currents Weather Stations Pressure Air Temp Water Temp Dewpoint Dewpoint Depression Visibility Wind Speed Wind Dir Waves Ship Positions

Punta Salinas

Last reported at 2015-Jul-29 13:12 UTC. Time now 2015-Aug-28 14:51 UTC.
Position N 28°09' W 015°25'.
Warning: this ship's position is 30 days out of date.

; draft 5 m.

Type: SAR. MMSI: 224522000.

Date/timePositionNaut miles runAvg speedWind from/ knotsBaromVisibWave heightAir tempDewpointWater temp
2015-Jul-29 13:12N 28°09' W 015°25'0 0.0
2015-Jul-29 12:30N 28°09' W 015°25'0 0.0
2015-Jul-29 11:30N 28°09' W 015°25'0 0.0
2015-Jul-29 10:30N 28°09' W 015°25'0 0.0
2015-Jul-29 08:30N 28°09' W 015°25'0 0.0
2015-Jul-29 07:33N 28°09' W 015°25'0 0.0
2015-Jul-29 06:33N 28°09' W 015°25'0 0.0
2015-Jul-29 05:33N 28°09' W 015°25'0 0.0
2015-Jul-29 04:33N 28°09' W 015°25'0 0.0
2015-Jul-29 03:33N 28°09' W 015°25'0 0.0
2015-Jul-29 02:33N 28°09' W 015°25'0 0.0
2015-Jul-29 01:24N 28°09' W 015°25'0 0.0
2015-Jul-29 00:27N 28°09' W 015°25'0 0.0
2015-Jul-28 23:30N 28°09' W 015°25'0 0.0
2015-Jul-28 22:30N 28°09' W 015°25'0 0.0
2015-Jul-28 21:30N 28°09' W 015°25'0 0.0
2015-Jul-28 20:18N 28°09' W 015°25'0 0.0
2015-Jul-28 19:30N 28°09' W 015°25'0 0.0
2015-Jul-28 18:33N 28°09' W 015°25'0 0.0
2015-Jul-28 17:33N 28°09' W 015°25'0 0.0
2015-Jul-28 16:33N 28°09' W 015°25'0 0.0
2015-Jul-28 15:33N 28°09' W 015°25'0 0.0
2015-Jul-28 14:33N 28°09' W 015°25'0 0.0
2015-Jul-28 13:24N 28°09' W 015°25'0 0.0
2015-Jul-28 12:33N 28°09' W 015°25'0 0.0
2015-Jul-28 11:24N 28°09' W 015°25'0 0.0
2015-Jul-28 10:27N 28°09' W 015°25'0 0.0
2015-Jul-28 09:30N 28°09' W 015°25'0 0.0
2015-Jul-28 08:30N 28°09' W 015°25'0 0.0
2015-Jul-28 07:27N 28°09' W 015°25'0 0.0
2015-Jul-28 06:30N 28°09' W 015°25'0 0.0
2015-Jul-28 05:30N 28°09' W 015°25'0 0.0
2015-Jul-28 04:30N 28°09' W 015°25'0 0.0
2015-Jul-28 03:33N 28°09' W 015°25'0 0.0
2015-Jul-28 02:33N 28°09' W 015°25'0 0.0
2015-Jul-28 01:33N 28°09' W 015°25'0 0.0
2015-Jul-27 23:33N 28°09' W 015°25'0 0.0
2015-Jul-27 22:33N 28°09' W 015°25'0 0.0
2015-Jul-27 21:24N 28°09' W 015°25'0 0.0
2015-Jul-27 20:24N 28°09' W 015°25'0 0.0
2015-Jul-27 19:30N 28°09' W 015°25'0 0.0
2015-Jul-27 17:12N 28°09' W 015°25'0 0.0
2015-Jul-27 16:30N 28°09' W 015°25'0 0.0
2015-Jul-27 15:27N 28°09' W 015°25'0 0.0
2015-Jul-27 14:30N 28°09' W 015°25'0 0.0
2015-Jul-27 13:33N 28°09' W 015°25'0 0.0
2015-Jul-27 12:33N 28°09' W 015°25'0 0.0
2015-Jul-27 11:24N 28°09' W 015°25'  
2015-Jul-24 16:33N 28°09' W 015°25'0 0.0
2015-Jul-24 15:33N 28°09' W 015°25'0 0.0
2015-Jul-24 14:33N 28°09' W 015°25'0 0.0
2015-Jul-24 13:33N 28°09' W 015°25'0 0.0
2015-Jul-24 12:33N 28°09' W 015°25'0 0.0
2015-Jul-24 11:33N 28°09' W 015°25'1 1.1
2015-Jul-24 10:33N 28°08' W 015°25'1 1.1
2015-Jul-24 09:25N 28°09' W 015°24'0 0.0
2015-Jul-24 08:25N 28°09' W 015°24'0 0.0
2015-Jul-24 07:25N 28°09' W 015°24'0 0.0
2015-Jul-24 06:25N 28°09' W 015°24'0 0.0
2015-Jul-24 05:31N 28°09' W 015°24'0 0.0
2015-Jul-24 04:31N 28°09' W 015°24'0 0.0
2015-Jul-24 03:31N 28°09' W 015°24'0 0.0
2015-Jul-24 02:31N 28°09' W 015°24'0 0.0
2015-Jul-24 01:31N 28°09' W 015°24'0 0.0
2015-Jul-24 00:31N 28°09' W 015°24'0 0.0
2015-Jul-23 23:31N 28°09' W 015°24'0 0.0
2015-Jul-23 22:31N 28°09' W 015°24'0 0.0
2015-Jul-23 21:31N 28°09' W 015°24'4 3.8
2015-Jul-23 20:33N 28°05' W 015°23'10 0.3
2015-Jul-22 08:33N 27°56' W 015°20'10 9.8
2015-Jul-22 07:33N 28°05' W 015°23'4 3.7
2015-Jul-22 06:31N 28°09' W 015°25'0 0.0
2015-Jul-22 05:28N 28°09' W 015°25'0 0.0
2015-Jul-22 04:28N 28°09' W 015°25'0 0.0
2015-Jul-22 03:28N 28°09' W 015°25'0 0.0
2015-Jul-22 02:28N 28°09' W 015°25'0 0.0
2015-Jul-22 01:28N 28°09' W 015°25'0 0.0
2015-Jul-22 00:28N 28°09' W 015°25'0 0.0
2015-Jul-21 23:28N 28°09' W 015°25'0 0.0
2015-Jul-21 22:31N 28°09' W 015°25'0 0.0
2015-Jul-21 21:31N 28°09' W 015°25'0 0.0
2015-Jul-21 20:31N 28°09' W 015°25'0 0.0
2015-Jul-21 19:31N 28°09' W 015°25'0 0.0
2015-Jul-21 18:19N 28°09' W 015°25'0 0.0
2015-Jul-21 17:31N 28°09' W 015°25'0 0.0
2015-Jul-21 16:19N 28°09' W 015°25'0 0.0
2015-Jul-21 15:22N 28°09' W 015°25'0 0.0
2015-Jul-21 14:28N 28°09' W 015°25'0 0.0
2015-Jul-21 13:28N 28°09' W 015°25'0 0.0
2015-Jul-21 12:28N 28°09' W 015°25'0 0.0
2015-Jul-21 11:28N 28°09' W 015°25'0 0.0
2015-Jul-21 10:28N 28°09' W 015°25'0 0.0
2015-Jul-21 09:28N 28°09' W 015°25'0 0.0
2015-Jul-21 08:28N 28°09' W 015°25'0 0.0
2015-Jul-21 07:31N 28°09' W 015°25'0 0.0
2015-Jul-21 06:31N 28°09' W 015°25'0 0.0
2015-Jul-21 05:31N 28°09' W 015°25'0 0.0
2015-Jul-21 04:31N 28°09' W 015°25'0 0.0
2015-Jul-21 03:31N 28°09' W 015°25'0 0.0
2015-Jul-21 02:33N 28°09' W 015°25'7 6.5
2015-Jul-21 01:33N 28°04' W 015°20'10 9.9
2015-Jul-21 00:33N 27°55' W 015°14'7 0.7
2015-Jul-20 15:20N 27°51' W 015°20'810.6
2015-Jul-20 14:33N 27°60' W 015°20'1010.0
2015-Jul-20 13:34N 28°08' W 015°25'0 0.0
2015-Jul-20 12:31N 28°08' W 015°25'0 0.0
2015-Jul-20 11:31N 28°08' W 015°25'0 0.0
2015-Jul-20 10:31N 28°08' W 015°25'0 0.0
2015-Jul-20 09:28N 28°08' W 015°25'  

Dump ship's entire track history